Terminal Aerodrome Forecast
Issued by NWS

Home | Current Version | Previous Version | Text Only | Print | Product List | Glossary On
Versions: 1 2 3 4 5 6 7 8 9 10 11 12 13 14 15
000
FTAK31 PAJN 192300 RRA
TAFASI
TAF
PASI 192346Z 2000/2024 09015G25KT P6SM SCT050 BKN100
      TEMPO 2000/2003 11020G30KT
     FM200300 11015G25KT P6SM VCSH SCT030 OVC060
     FM200600 11015KT 6SM -RA BR SCT025 OVC050 WS020/12040KT
     FM201300 15008G18KT 4SM -RA BR SCT012 OVC025=

USA.gov is the U.S. government's official web portal to all federal, state and local government web resources and services.